createdAt,value
2019-01-21T00:01:59.369Z,15.80
2019-01-21T00:04:25.828Z,18.17
2019-01-21T00:06:52.488Z,18.97
2019-01-21T00:09:19.056Z,19.53
2019-01-21T00:11:45.589Z,18.10
2019-01-21T00:14:12.140Z,18.70
2019-01-21T00:16:38.655Z,18.40
2019-01-21T00:19:05.218Z,18.47
2019-01-21T00:21:32.842Z,18.93
2019-01-21T00:23:59.512Z,18.13
2019-01-21T00:26:26.036Z,18.60
2019-01-21T00:28:53.417Z,18.10
2019-01-21T00:31:19.942Z,17.20
2019-01-21T00:33:46.621Z,18.80
2019-01-21T00:36:13.246Z,18.30
2019-01-21T00:38:39.922Z,17.27
2019-01-21T00:41:06.558Z,18.10
2019-01-21T00:43:33.127Z,18.33
2019-01-21T00:45:59.739Z,18.13
2019-01-21T00:48:26.363Z,16.83
2019-01-21T00:50:52.937Z,17.13
2019-01-21T00:53:19.612Z,16.27
2019-01-21T00:55:46.288Z,17.83
2019-01-21T00:58:12.775Z,18.47
2019-01-21T01:00:39.457Z,18.80
2019-01-21T01:03:06.080Z,17.83
2019-01-21T01:05:32.648Z,18.00
2019-01-21T01:07:59.172Z,19.27
2019-01-21T01:10:25.733Z,16.50
2019-01-21T01:12:52.258Z,18.10
2019-01-21T01:15:18.942Z,19.13
2019-01-21T01:17:45.478Z,17.93
2019-01-21T01:20:14.358Z,19.50
2019-01-21T01:22:40.977Z,18.93
2019-01-21T01:25:08.167Z,19.37
2019-01-21T01:27:34.689Z,20.73
2019-01-21T01:30:01.526Z,20.33
2019-01-21T01:32:28.207Z,19.17
2019-01-21T01:34:54.737Z,19.77
2019-01-21T01:37:21.254Z,19.47
2019-01-21T01:39:48.321Z,20.73
2019-01-21T01:42:14.944Z,19.13
2019-01-21T01:44:41.604Z,20.80
2019-01-21T01:47:08.180Z,18.60
2019-01-21T01:49:34.689Z,17.77
2019-01-21T01:52:01.264Z,20.50
2019-01-21T01:54:27.894Z,24.10
2019-01-21T01:56:54.703Z,21.30
2019-01-21T01:59:21.261Z,20.07
2019-01-21T02:01:47.827Z,22.40
2019-01-21T02:04:14.577Z,18.77
2019-01-21T02:06:41.108Z,20.03
2019-01-21T02:09:07.978Z,22.67
2019-01-21T02:11:35.031Z,19.20
2019-01-21T02:14:01.470Z,20.83
2019-01-21T02:16:28.037Z,20.50
2019-01-21T02:18:54.566Z,20.70
2019-01-21T02:21:22.505Z,21.40
2019-01-21T02:23:52.628Z,20.53
2019-01-21T02:26:21.487Z,19.70
2019-01-21T02:28:53.746Z,21.00
2019-01-21T02:31:35.736Z,20.10
2019-01-21T02:34:18.396Z,22.43
2019-01-21T02:36:58.025Z,20.73
2019-01-21T02:39:43.734Z,22.17
2019-01-21T02:42:17.096Z,21.90
2019-01-21T02:44:53.492Z,22.10
2019-01-21T02:47:26.843Z,19.10
2019-01-21T02:50:32.686Z,18.50
2019-01-21T02:53:12.378Z,19.80
2019-01-21T02:55:55.068Z,20.20
2019-01-21T02:58:40.500Z,19.30
2019-01-21T03:01:27.499Z,19.20
2019-01-21T03:04:01.277Z,18.60
2019-01-21T03:06:37.202Z,20.13
2019-01-21T03:09:13.363Z,19.67
2019-01-21T03:11:49.444Z,20.60
2019-01-21T03:14:37.652Z,19.60
2019-01-21T03:17:23.150Z,21.17
2019-01-21T03:19:59.757Z,21.30
2019-01-21T03:22:31.777Z,21.20
2019-01-21T03:25:25.147Z,23.67
2019-01-21T03:27:58.834Z,21.23
2019-01-21T03:30:40.901Z,21.30
2019-01-21T03:33:20.706Z,21.00
2019-01-21T03:36:03.480Z,22.03
2019-01-21T03:38:42.954Z,22.20
2019-01-21T03:41:22.648Z,22.33
2019-01-21T03:44:14.516Z,22.63
2019-01-21T03:46:57.055Z,22.20
2019-01-21T03:49:47.570Z,22.60
2019-01-21T03:52:47.084Z,21.87
2019-01-21T03:55:15.645Z,21.20
2019-01-21T03:57:52.342Z,22.27
2019-01-21T04:00:28.632Z,21.07
2019-01-21T04:03:15.529Z,19.97
2019-01-21T04:06:01.302Z,22.03
2019-01-21T04:08:57.617Z,21.27
2019-01-21T04:11:46.187Z,22.50
2019-01-21T04:14:39.368Z,21.13
2019-01-21T04:17:18.948Z,21.43
2019-01-21T04:19:49.419Z,19.27
2019-01-21T04:22:22.647Z,21.50
2019-01-21T04:24:58.997Z,22.97
2019-01-21T04:27:38.687Z,20.30
2019-01-21T04:30:15.360Z,21.87
2019-01-21T04:33:00.681Z,23.10
2019-01-21T04:35:40.040Z,22.10
2019-01-21T04:38:15.873Z,22.20
2019-01-21T04:40:48.962Z,22.83
2019-01-21T04:43:22.043Z,24.83
2019-01-21T04:46:04.330Z,24.80
2019-01-21T04:48:50.088Z,23.97
2019-01-21T04:51:26.361Z,27.27
2019-01-21T04:54:32.049Z,25.20
2019-01-21T04:57:11.484Z,24.10
2019-01-21T04:59:50.592Z,24.40
2019-01-21T05:02:35.817Z,26.33
2019-01-21T05:05:19.289Z,24.30
2019-01-21T05:07:52.754Z,24.33
2019-01-21T05:10:40.027Z,24.87
2019-01-21T05:13:38.880Z,24.60
2019-01-21T05:16:12.126Z,24.00
2019-01-21T05:18:51.839Z,27.43
2019-01-21T05:21:48.482Z,26.07
2019-01-21T05:24:34.380Z,26.83
2019-01-21T05:27:10.517Z,27.80
2019-01-21T05:30:02.743Z,25.23
2019-01-21T05:32:54.534Z,27.77
2019-01-21T05:35:49.580Z,26.37
2019-01-21T05:38:26.064Z,24.20
2019-01-21T05:41:05.510Z,26.47
2019-01-21T05:43:48.239Z,25.17
2019-01-21T05:46:35.184Z,27.97
2019-01-21T05:49:08.643Z,28.50
2019-01-21T05:51:57.050Z,27.73
2019-01-21T05:54:27.380Z,26.83
2019-01-21T05:57:00.597Z,27.63
2019-01-21T05:59:33.778Z,26.97
2019-01-21T06:02:15.888Z,27.37
2019-01-21T06:04:52.086Z,27.10
2019-01-21T06:07:25.481Z,27.70
2019-01-21T06:10:02.986Z,27.03
2019-01-21T06:12:42.397Z,26.63
2019-01-21T06:15:33.457Z,28.03
2019-01-21T06:18:22.251Z,28.37
2019-01-21T06:21:18.134Z,32.63
2019-01-21T06:24:00.777Z,31.23
2019-01-21T06:26:33.999Z,29.97
2019-01-21T06:29:10.256Z,31.10
2019-01-21T06:31:55.690Z,30.73
2019-01-21T06:34:34.732Z,32.17
2019-01-21T06:37:14.305Z,32.60
2019-01-21T06:39:53.890Z,30.37
2019-01-21T06:42:30.109Z,31.20
2019-01-21T06:45:03.412Z,30.77
2019-01-21T06:48:00.181Z,30.87
2019-01-21T06:50:48.000Z,33.27
2019-01-21T06:53:18.471Z,31.60
2019-01-21T06:56:00.967Z,33.07
2019-01-21T06:58:34.333Z,33.33
2019-01-21T07:01:34.940Z,30.93
2019-01-21T07:04:28.317Z,31.90
2019-01-21T07:07:15.014Z,33.53
2019-01-21T07:09:51.498Z,37.43
2019-01-21T07:12:48.472Z,35.70
2019-01-21T07:15:30.857Z,34.80
2019-01-21T07:18:19.687Z,34.07
2019-01-21T07:21:05.041Z,33.30
2019-01-21T07:23:41.241Z,33.10
2019-01-21T07:26:27.106Z,34.03
2019-01-21T07:29:00.339Z,32.63
2019-01-21T07:31:36.476Z,33.37
2019-01-21T07:34:09.546Z,32.93
2019-01-21T07:36:49.943Z,34.77
2019-01-21T07:39:33.865Z,34.90
2019-01-21T07:42:16.319Z,35.03
2019-01-21T07:44:52.649Z,33.87
2019-01-21T07:47:39.713Z,33.73
2019-01-21T07:50:31.019Z,33.67
2019-01-21T07:53:10.676Z,35.10
2019-01-21T07:55:46.699Z,35.27
2019-01-21T07:58:43.246Z,36.20
2019-01-21T08:01:19.647Z,34.73
2019-01-21T08:04:22.070Z,36.53
2019-01-21T08:06:58.753Z,35.07
2019-01-21T08:09:52.284Z,33.40
2019-01-21T08:12:34.828Z,36.97
2019-01-21T08:15:05.254Z,34.10
2019-01-21T08:17:35.626Z,33.83
2019-01-21T08:20:09.225Z,33.97
2019-01-21T08:22:54.847Z,34.67
2019-01-21T08:25:39.780Z,33.40
2019-01-21T08:28:28.344Z,34.37
2019-01-21T08:31:08.136Z,33.83
2019-01-21T08:33:44.188Z,33.17
2019-01-21T08:36:39.309Z,33.70
2019-01-21T08:39:18.228Z,34.70
2019-01-21T08:41:51.580Z,34.30
2019-01-21T08:44:36.669Z,34.30
2019-01-21T08:47:12.973Z,35.80
2019-01-21T08:49:43.396Z,35.43
2019-01-21T08:52:47.382Z,35.37
2019-01-21T08:55:37.681Z,33.13
2019-01-21T08:58:34.092Z,33.17
2019-01-21T09:01:10.520Z,35.77
2019-01-21T09:03:40.880Z,34.20
2019-01-21T09:06:17.065Z,33.10
2019-01-21T09:09:08.681Z,34.60
2019-01-21T09:11:45.368Z,34.27
2019-01-21T09:14:24.951Z,32.23
2019-01-21T09:17:19.853Z,33.17
2019-01-21T09:20:10.694Z,34.93
2019-01-21T09:22:43.525Z,34.87
2019-01-21T09:25:29.106Z,35.50
2019-01-21T09:28:05.458Z,34.57
2019-01-21T09:30:38.847Z,36.17
2019-01-21T09:33:23.807Z,34.70
2019-01-21T09:36:00.140Z,37.87
2019-01-21T09:38:36.278Z,37.63
2019-01-21T09:41:21.777Z,37.13
2019-01-21T09:43:52.344Z,36.13
2019-01-21T09:46:25.685Z,36.33
2019-01-21T09:48:52.022Z,37.20
2019-01-21T09:51:18.946Z,35.83
2019-01-21T09:53:48.317Z,37.40
2019-01-21T09:56:14.924Z,35.90
2019-01-21T09:58:43.078Z,38.17
2019-01-21T10:01:09.810Z,35.43
2019-01-21T10:03:37.096Z,33.80
2019-01-21T10:06:05.324Z,34.83
2019-01-21T10:08:51.568Z,35.33
2019-01-21T10:11:41.688Z,34.23
2019-01-21T10:14:23.733Z,34.40
2019-01-21T10:17:03.261Z,33.40
2019-01-21T10:19:36.396Z,33.67
2019-01-21T10:22:06.769Z,33.17
2019-01-21T10:24:58.070Z,35.60
2019-01-21T10:27:43.440Z,35.83
2019-01-21T10:30:13.873Z,32.77
2019-01-21T10:33:00.981Z,34.53
2019-01-21T10:35:35.409Z,33.53
2019-01-21T10:38:23.684Z,35.10
2019-01-21T10:40:59.897Z,34.47
2019-01-21T10:43:33.111Z,37.33
2019-01-21T10:46:09.485Z,35.60
2019-01-21T10:48:59.839Z,35.67
2019-01-21T10:51:30.164Z,34.50
2019-01-21T10:54:06.325Z,34.57
2019-01-21T10:56:51.601Z,34.40
2019-01-21T10:59:27.760Z,34.60
2019-01-21T11:02:10.221Z,35.20
2019-01-21T11:04:52.892Z,33.67
2019-01-21T11:07:38.521Z,34.20
2019-01-21T11:10:20.454Z,31.87
2019-01-21T11:12:56.860Z,37.03
2019-01-21T11:15:27.185Z,33.40
2019-01-21T11:18:12.783Z,35.30
2019-01-21T11:20:59.957Z,35.23
2019-01-21T11:23:30.411Z,32.33
2019-01-21T11:26:16.000Z,31.80
2019-01-21T11:28:55.681Z,32.20
2019-01-21T11:31:38.025Z,33.20
2019-01-21T11:34:23.484Z,30.83
2019-01-21T11:37:09.117Z,32.00
2019-01-21T11:40:07.697Z,31.50
2019-01-21T11:42:47.025Z,31.20
2019-01-21T11:45:36.576Z,30.97
2019-01-21T11:48:12.508Z,31.87
2019-01-21T11:51:02.950Z,33.47
2019-01-21T11:53:42.625Z,33.67
2019-01-21T11:56:13.053Z,33.83
2019-01-21T11:59:01.250Z,33.50
2019-01-21T12:01:43.084Z,34.10
2019-01-21T12:04:25.566Z,34.77
2019-01-21T12:06:58.460Z,35.90
2019-01-21T12:09:37.651Z,33.70
2019-01-21T12:12:07.986Z,34.63
2019-01-21T12:14:38.233Z,34.87
2019-01-21T12:17:26.496Z,33.17
2019-01-21T12:20:17.181Z,34.67
2019-01-21T12:22:50.938Z,35.27
2019-01-21T12:25:36.529Z,35.90
2019-01-21T12:28:28.419Z,35.37
2019-01-21T12:31:01.581Z,35.40
2019-01-21T12:33:43.885Z,35.30
2019-01-21T12:36:14.249Z,37.20
2019-01-21T12:39:08.785Z,35.63
2019-01-21T12:41:39.141Z,34.30
2019-01-21T12:44:09.492Z,33.30
2019-01-21T12:46:39.962Z,35.83
2019-01-21T12:49:29.356Z,35.83
2019-01-21T12:52:05.845Z,34.03
2019-01-21T12:54:53.205Z,35.23
2019-01-21T12:57:42.753Z,32.43
2019-01-21T13:00:30.747Z,34.43
2019-01-21T13:03:01.157Z,32.70
2019-01-21T13:05:38.053Z,32.77
2019-01-21T13:08:14.308Z,32.00
2019-01-21T13:10:54.471Z,31.80
2019-01-21T13:13:37.346Z,30.47
2019-01-21T13:16:10.983Z,30.90
2019-01-21T13:18:50.528Z,33.63
2019-01-21T13:21:27.165Z,32.50
2019-01-21T13:24:00.350Z,31.17
2019-01-21T13:26:58.400Z,30.90
2019-01-21T13:29:35.913Z,33.90
2019-01-21T13:32:12.234Z,32.90
2019-01-21T13:34:51.472Z,33.23
2019-01-21T13:37:48.168Z,32.53
2019-01-21T13:40:52.502Z,33.60
2019-01-21T13:43:22.885Z,33.23
2019-01-21T13:46:25.142Z,34.07
2019-01-21T13:49:04.789Z,33.67
2019-01-21T13:51:44.195Z,34.60
2019-01-21T13:54:32.923Z,34.03
2019-01-21T13:57:12.633Z,34.27
2019-01-21T13:59:55.225Z,34.13
2019-01-21T14:02:31.887Z,31.27
2019-01-21T14:05:13.932Z,33.80
2019-01-21T14:07:59.936Z,31.97
2019-01-21T14:10:33.110Z,34.00
2019-01-21T14:13:26.289Z,32.20
2019-01-21T14:15:55.949Z,30.40
2019-01-21T14:18:38.153Z,32.70
2019-01-21T14:21:08.468Z,29.60
2019-01-21T14:23:51.140Z,29.80
2019-01-21T14:26:38.419Z,30.37
2019-01-21T14:29:21.227Z,29.83
2019-01-21T14:31:54.310Z,30.27
2019-01-21T14:34:30.750Z,29.63
2019-01-21T14:37:07.342Z,30.50
2019-01-21T14:39:40.817Z,30.80
2019-01-21T14:42:23.415Z,29.30
2019-01-21T14:45:27.771Z,30.60
2019-01-21T14:48:11.069Z,30.90
2019-01-21T14:51:02.562Z,30.50
2019-01-21T14:53:33.041Z,30.43
2019-01-21T14:56:08.812Z,30.87
2019-01-21T14:58:45.427Z,29.73
2019-01-21T15:01:15.737Z,30.33
2019-01-21T15:03:48.801Z,31.60
2019-01-21T15:06:39.242Z,30.90
2019-01-21T15:09:24.988Z,31.70
2019-01-21T15:12:19.226Z,30.57
2019-01-21T15:15:09.889Z,29.83
2019-01-21T15:17:58.608Z,30.17
2019-01-21T15:20:35.022Z,27.87
2019-01-21T15:23:18.086Z,30.27
2019-01-21T15:25:56.937Z,29.27
2019-01-21T15:28:30.400Z,30.43
2019-01-21T15:31:15.756Z,30.47
2019-01-21T15:33:55.285Z,28.20
2019-01-21T15:36:40.671Z,28.70
2019-01-21T15:39:16.862Z,28.00
2019-01-21T15:42:02.601Z,29.50
2019-01-21T15:44:42.345Z,30.43
2019-01-21T15:47:21.456Z,29.70
2019-01-21T15:50:00.876Z,29.30
2019-01-21T15:52:31.212Z,26.93
2019-01-21T15:55:16.714Z,27.80
2019-01-21T15:57:50.045Z,30.40
2019-01-21T16:00:41.432Z,29.43
2019-01-21T16:03:11.861Z,27.93
2019-01-21T16:05:53.797Z,30.90
2019-01-21T16:08:23.926Z,29.80
2019-01-21T16:10:57.196Z,30.37
2019-01-21T16:13:30.597Z,30.47
2019-01-21T16:16:18.593Z,30.40
2019-01-21T16:18:51.828Z,30.80
2019-01-21T16:21:39.202Z,30.40
2019-01-21T16:24:31.480Z,30.60
2019-01-21T16:27:08.081Z,31.67
2019-01-21T16:29:38.665Z,31.60
2019-01-21T16:32:06.401Z,29.80
2019-01-21T16:34:39.643Z,30.57
2019-01-21T16:37:37.062Z,31.70
2019-01-21T16:40:15.997Z,31.73
2019-01-21T16:42:42.556Z,31.37
2019-01-21T16:45:09.321Z,31.47
2019-01-21T16:47:36.000Z,31.03
2019-01-21T16:50:03.915Z,31.50
2019-01-21T16:52:30.497Z,30.93
2019-01-21T16:54:57.021Z,31.10
2019-01-21T16:57:23.659Z,32.37
2019-01-21T16:59:50.209Z,30.93
2019-01-21T17:02:16.730Z,30.20
2019-01-21T17:04:43.306Z,33.80
2019-01-21T17:07:09.825Z,30.00
2019-01-21T17:09:36.459Z,32.23
2019-01-21T17:12:03.348Z,28.63
2019-01-21T17:14:29.973Z,31.30
2019-01-21T17:16:56.490Z,31.50
2019-01-21T17:19:23.060Z,29.27
2019-01-21T17:21:51.291Z,30.50
2019-01-21T17:24:17.861Z,30.13
2019-01-21T17:26:44.476Z,30.20
2019-01-21T17:29:11.041Z,31.03
2019-01-21T17:31:37.673Z,29.07
2019-01-21T17:34:04.400Z,29.20
2019-01-21T17:36:31.081Z,32.00
2019-01-21T17:38:57.608Z,29.30
2019-01-21T17:41:24.277Z,33.00
2019-01-21T17:43:50.868Z,30.37
2019-01-21T17:46:18.483Z,32.20
2019-01-21T17:48:45.089Z,32.90
2019-01-21T17:51:11.971Z,29.70
2019-01-21T17:53:38.482Z,32.60
2019-01-21T17:56:05.166Z,31.30
2019-01-21T17:58:31.678Z,31.10
2019-01-21T18:00:58.249Z,31.47
2019-01-21T18:03:24.930Z,32.70
2019-01-21T18:05:51.506Z,31.93
2019-01-21T18:08:18.156Z,31.17
2019-01-21T18:10:44.781Z,31.30
2019-01-21T18:13:11.481Z,33.33
2019-01-21T18:15:38.004Z,31.80
2019-01-21T18:18:05.168Z,32.53
2019-01-21T18:20:31.737Z,33.40
2019-01-21T18:22:58.457Z,32.40
2019-01-21T18:25:24.963Z,33.83
2019-01-21T18:27:51.545Z,31.90
2019-01-21T18:30:20.468Z,32.40
2019-01-21T18:32:47.178Z,33.80
2019-01-21T18:35:14.146Z,31.97
2019-01-21T18:37:40.934Z,33.80
2019-01-21T18:40:13.920Z,33.67
2019-01-21T18:42:40.520Z,33.80
2019-01-21T18:45:09.951Z,32.80
2019-01-21T18:47:36.514Z,32.60
2019-01-21T18:50:06.635Z,34.30
2019-01-21T18:52:33.315Z,33.10
2019-01-21T18:54:59.947Z,33.30
2019-01-21T18:57:26.568Z,33.03
2019-01-21T18:59:53.159Z,31.33
2019-01-21T19:02:19.678Z,32.50
2019-01-21T19:04:46.233Z,35.80
2019-01-21T19:07:12.914Z,36.63
2019-01-21T19:09:40.354Z,34.40
2019-01-21T19:12:07.389Z,32.40
2019-01-21T19:14:34.061Z,34.00
2019-01-21T19:17:00.782Z,32.80
2019-01-21T19:19:27.350Z,34.33
2019-01-21T19:21:54.124Z,34.17
2019-01-21T19:24:20.650Z,34.60
2019-01-21T19:26:47.221Z,34.43
2019-01-21T19:29:13.743Z,32.73
2019-01-21T19:31:40.381Z,34.37
2019-01-21T19:34:07.258Z,33.43
2019-01-21T19:36:34.041Z,33.27
2019-01-21T19:39:00.764Z,33.77
2019-01-21T19:41:27.501Z,31.17
2019-01-21T19:43:54.311Z,33.00
2019-01-21T19:46:20.869Z,33.27
2019-01-21T19:48:47.973Z,34.53
2019-01-21T19:51:14.542Z,34.33
2019-01-21T19:53:41.211Z,33.70
2019-01-21T19:56:07.803Z,34.43
2019-01-21T19:58:34.411Z,34.90
2019-01-21T20:01:01.173Z,34.50
2019-01-21T20:03:27.761Z,34.03
2019-01-21T20:05:54.374Z,34.43
2019-01-21T20:08:21.315Z,35.17
2019-01-21T20:10:48.327Z,34.77
2019-01-21T20:13:15.113Z,34.87
2019-01-21T20:15:41.812Z,39.87
2019-01-21T20:18:08.323Z,36.37
2019-01-21T20:20:37.396Z,38.27
2019-01-21T20:23:04.323Z,36.67
2019-01-21T20:25:30.976Z,36.33
2019-01-21T20:27:57.658Z,40.53
2019-01-21T20:30:24.277Z,40.00
2019-01-21T20:32:51.043Z,39.60
2019-01-21T20:35:17.858Z,41.53
2019-01-21T20:37:44.620Z,40.57
2019-01-21T20:40:19.788Z,39.30
2019-01-21T20:42:46.451Z,42.33
2019-01-21T20:45:14.586Z,41.10
2019-01-21T20:47:41.361Z,41.23
2019-01-21T20:50:14.354Z,40.40
2019-01-21T20:52:40.976Z,41.50
2019-01-21T20:55:09.023Z,42.23
2019-01-21T20:57:37.295Z,41.17
2019-01-21T21:00:10.413Z,41.73
2019-01-21T21:02:36.996Z,43.80
2019-01-21T21:05:05.484Z,42.67
2019-01-21T21:07:32.091Z,43.00
2019-01-21T21:09:58.866Z,45.57
2019-01-21T21:12:25.981Z,43.50
2019-01-21T21:14:52.789Z,45.57
2019-01-21T21:17:19.465Z,42.63
2019-01-21T21:19:46.141Z,44.53
2019-01-21T21:22:12.709Z,45.30
2019-01-21T21:24:39.297Z,44.00
2019-01-21T21:27:05.828Z,46.57
2019-01-21T21:29:32.422Z,46.00
2019-01-21T21:31:59.379Z,44.43
2019-01-21T21:34:26.140Z,46.87
2019-01-21T21:36:52.917Z,46.37
2019-01-21T21:39:19.446Z,46.60
2019-01-21T21:41:45.971Z,48.90
2019-01-21T21:44:12.525Z,45.50
2019-01-21T21:46:39.294Z,47.53
2019-01-21T21:49:05.905Z,47.80
2019-01-21T21:51:32.523Z,47.43
2019-01-21T21:53:59.027Z,49.60
2019-01-21T21:56:25.614Z,48.97
2019-01-21T21:58:52.128Z,48.27
2019-01-21T22:01:23.871Z,49.30
2019-01-21T22:03:47.264Z,51.30
2019-01-21T22:06:13.940Z,48.80
2019-01-21T22:08:40.465Z,48.70
2019-01-21T22:11:07.061Z,49.87
2019-01-21T22:13:33.623Z,47.97
2019-01-21T22:16:00.452Z,49.63
2019-01-21T22:18:27.312Z,50.47
2019-01-21T22:20:54.037Z,50.37
2019-01-21T22:23:22.397Z,49.33
2019-01-21T22:25:48.909Z,48.60
2019-01-21T22:28:15.571Z,48.83
2019-01-21T22:30:42.128Z,52.60
2019-01-21T22:33:08.709Z,49.57
2019-01-21T22:35:35.328Z,51.00
2019-01-21T22:38:01.947Z,53.87
2019-01-21T22:40:28.609Z,49.17
2019-01-21T22:42:55.260Z,52.87
2019-01-21T22:45:21.840Z,52.00
2019-01-21T22:47:48.473Z,50.53
2019-01-21T22:50:16.250Z,52.53
2019-01-21T22:52:42.881Z,51.30
2019-01-21T22:55:11.248Z,48.90
2019-01-21T22:57:37.774Z,52.30
2019-01-21T23:00:10.910Z,51.23
2019-01-21T23:02:38.001Z,48.17
2019-01-21T23:05:06.124Z,49.73
2019-01-21T23:07:32.836Z,50.17
2019-01-21T23:09:59.349Z,52.67
2019-01-21T23:12:26.138Z,49.70
2019-01-21T23:14:52.652Z,50.43
2019-01-21T23:17:19.184Z,52.17
2019-01-21T23:19:45.755Z,50.30
2019-01-21T23:22:12.294Z,51.83
2019-01-21T23:24:38.818Z,50.30
2019-01-21T23:27:05.476Z,50.20
2019-01-21T23:29:32.148Z,50.73
2019-01-21T23:31:58.810Z,50.30
2019-01-21T23:34:25.673Z,49.57
2019-01-21T23:36:52.322Z,52.10
2019-01-21T23:39:18.982Z,51.10
2019-01-21T23:41:45.653Z,51.07
2019-01-21T23:44:12.259Z,47.87
2019-01-21T23:46:39.049Z,46.03
2019-01-21T23:49:05.557Z,48.30
2019-01-21T23:51:32.485Z,47.87
2019-01-21T23:53:59.005Z,45.87
2019-01-21T23:56:25.629Z,43.80
2019-01-21T23:58:52.296Z,47.27
